Terminal Aerodrome Forecast
Issued by NWS

Home | Current Version | Previous Version | Text Only | Print | Product List | Glossary On
Versions: 1 2 3 4 5 6 7 8 9 10 11 12 13 14 15 16 17 18 19 20
000
FTUS43 KBIS 272336
TAFJMS
TAF
KJMS 272336Z 2800/2824 32004KT P6SM SCT060 BKN200
     FM280200 04006KT P6SM SCT200
     FM281400 02005KT P6SM BKN015
     FM281600 03007KT P6SM BKN025
     FM281800 03006KT P6SM BKN040
     FM282000 36006KT P6SM BKN060=

USA.gov is the U.S. government's official web portal to all federal, state and local government web resources and services.